sensor_id;sensor_type;location;lat;lon;timestamp;temperature;humidity
3408;DHT22;1717;50.240;8.406;2024-02-15T00:01:25;12.00;99.90
3408;DHT22;1717;50.240;8.406;2024-02-15T00:03:54;12.00;99.90
3408;DHT22;1717;50.240;8.406;2024-02-15T00:06:20;12.10;99.90
3408;DHT22;1717;50.240;8.406;2024-02-15T00:08:48;12.10;99.90
3408;DHT22;1717;50.240;8.406;2024-02-15T00:11:15;12.20;99.90
3408;DHT22;1717;50.240;8.406;2024-02-15T00:13:42;12.10;99.90
3408;DHT22;1717;50.240;8.406;2024-02-15T00:16:13;12.10;99.90
3408;DHT22;1717;50.240;8.406;2024-02-15T00:18:40;12.10;99.90
3408;DHT22;1717;50.240;8.406;2024-02-15T00:21:08;12.20;99.90
3408;DHT22;1717;50.240;8.406;2024-02-15T00:23:36;12.10;99.90
3408;DHT22;1717;50.240;8.406;2024-02-15T00:26:03;12.20;99.90
3408;DHT22;1717;50.240;8.406;2024-02-15T00:28:30;12.10;99.90
3408;DHT22;1717;50.240;8.406;2024-02-15T00:30:58;12.10;99.90
3408;DHT22;1717;50.240;8.406;2024-02-15T00:33:25;12.20;99.90
3408;DHT22;1717;50.240;8.406;2024-02-15T00:35:52;12.20;99.90
3408;DHT22;1717;50.240;8.406;2024-02-15T00:38:20;12.20;99.90
3408;DHT22;1717;50.240;8.406;2024-02-15T00:40:47;12.20;99.90
3408;DHT22;1717;50.240;8.406;2024-02-15T00:43:14;12.30;99.90
3408;DHT22;1717;50.240;8.406;2024-02-15T00:45:41;12.20;99.90
3408;DHT22;1717;50.240;8.406;2024-02-15T00:48:07;12.30;99.90
3408;DHT22;1717;50.240;8.406;2024-02-15T00:50:35;12.30;99.90
3408;DHT22;1717;50.240;8.406;2024-02-15T00:53:02;12.30;99.90
3408;DHT22;1717;50.240;8.406;2024-02-15T00:55:31;12.30;99.90
3408;DHT22;1717;50.240;8.406;2024-02-15T00:57:57;12.30;99.90
3408;DHT22;1717;50.240;8.406;2024-02-15T01:00:24;12.30;99.90
3408;DHT22;1717;50.240;8.406;2024-02-15T01:02:51;12.30;99.90
3408;DHT22;1717;50.240;8.406;2024-02-15T01:05:18;12.40;99.90
3408;DHT22;1717;50.240;8.406;2024-02-15T01:07:45;12.30;99.90
3408;DHT22;1717;50.240;8.406;2024-02-15T01:10:14;12.40;99.90
3408;DHT22;1717;50.240;8.406;2024-02-15T01:12:43;12.30;99.90
3408;DHT22;1717;50.240;8.406;2024-02-15T01:15:10;12.40;99.90
3408;DHT22;1717;50.240;8.406;2024-02-15T01:17:37;12.30;99.90
3408;DHT22;1717;50.240;8.406;2024-02-15T01:20:04;12.40;99.90
3408;DHT22;1717;50.240;8.406;2024-02-15T01:22:33;12.30;99.90
3408;DHT22;1717;50.240;8.406;2024-02-15T01:25:00;12.40;99.90
3408;DHT22;1717;50.240;8.406;2024-02-15T01:27:27;12.40;99.90
3408;DHT22;1717;50.240;8.406;2024-02-15T01:29:56;12.40;99.90
3408;DHT22;1717;50.240;8.406;2024-02-15T01:32:23;12.40;99.90
3408;DHT22;1717;50.240;8.406;2024-02-15T01:34:51;12.40;99.90
3408;DHT22;1717;50.240;8.406;2024-02-15T01:37:20;12.40;99.90
3408;DHT22;1717;50.240;8.406;2024-02-15T01:39:47;12.50;99.90
3408;DHT22;1717;50.240;8.406;2024-02-15T01:42:14;12.40;99.90
3408;DHT22;1717;50.240;8.406;2024-02-15T01:44:41;12.40;99.90
3408;DHT22;1717;50.240;8.406;2024-02-15T01:47:11;12.40;99.90
3408;DHT22;1717;50.240;8.406;2024-02-15T01:49:38;12.40;99.90
3408;DHT22;1717;50.240;8.406;2024-02-15T01:52:07;12.40;99.90
3408;DHT22;1717;50.240;8.406;2024-02-15T01:54:36;12.40;99.90
3408;DHT22;1717;50.240;8.406;2024-02-15T01:57:04;12.40;99.90
3408;DHT22;1717;50.240;8.406;2024-02-15T01:59:31;12.40;99.90
3408;DHT22;1717;50.240;8.406;2024-02-15T02:01:58;12.40;99.90
3408;DHT22;1717;50.240;8.406;2024-02-15T02:04:27;12.40;99.90
3408;DHT22;1717;50.240;8.406;2024-02-15T02:06:53;12.40;99.90
3408;DHT22;1717;50.240;8.406;2024-02-15T02:09:24;12.40;99.90
3408;DHT22;1717;50.240;8.406;2024-02-15T02:11:51;12.40;99.90
3408;DHT22;1717;50.240;8.406;2024-02-15T02:14:18;12.40;99.90
3408;DHT22;1717;50.240;8.406;2024-02-15T02:16:46;12.40;99.90
3408;DHT22;1717;50.240;8.406;2024-02-15T02:19:13;12.40;99.90
3408;DHT22;1717;50.240;8.406;2024-02-15T02:21:41;12.40;99.90
3408;DHT22;1717;50.240;8.406;2024-02-15T02:24:13;12.40;99.90
3408;DHT22;1717;50.240;8.406;2024-02-15T02:26:41;12.40;99.90
3408;DHT22;1717;50.240;8.406;2024-02-15T02:29:08;12.50;99.90
3408;DHT22;1717;50.240;8.406;2024-02-15T02:31:36;12.40;99.90
3408;DHT22;1717;50.240;8.406;2024-02-15T02:34:03;12.40;99.90
3408;DHT22;1717;50.240;8.406;2024-02-15T02:36:32;12.40;99.90
3408;DHT22;1717;50.240;8.406;2024-02-15T02:38:58;12.50;99.90
3408;DHT22;1717;50.240;8.406;2024-02-15T02:41:26;12.50;99.90
3408;DHT22;1717;50.240;8.406;2024-02-15T02:43:55;12.60;99.90
3408;DHT22;1717;50.240;8.406;2024-02-15T02:46:22;12.40;99.90
3408;DHT22;1717;50.240;8.406;2024-02-15T02:48:48;12.40;99.90
3408;DHT22;1717;50.240;8.406;2024-02-15T02:51:15;12.40;99.90
3408;DHT22;1717;50.240;8.406;2024-02-15T02:53:42;12.50;99.90
3408;DHT22;1717;50.240;8.406;2024-02-15T02:56:09;12.50;99.90
3408;DHT22;1717;50.240;8.406;2024-02-15T02:58:36;12.40;99.90
3408;DHT22;1717;50.240;8.406;2024-02-15T03:01:07;12.60;99.90
3408;DHT22;1717;50.240;8.406;2024-02-15T03:03:34;12.50;99.90
3408;DHT22;1717;50.240;8.406;2024-02-15T03:06:02;12.50;99.90
3408;DHT22;1717;50.240;8.406;2024-02-15T03:08:29;12.40;99.90
3408;DHT22;1717;50.240;8.406;2024-02-15T03:10:56;12.50;99.90
3408;DHT22;1717;50.240;8.406;2024-02-15T03:13:23;12.60;99.90
3408;DHT22;1717;50.240;8.406;2024-02-15T03:15:49;12.40;99.90
3408;DHT22;1717;50.240;8.406;2024-02-15T03:18:18;12.40;99.90
3408;DHT22;1717;50.240;8.406;2024-02-15T03:20:44;12.50;99.90
3408;DHT22;1717;50.240;8.406;2024-02-15T03:23:11;12.50;99.90
3408;DHT22;1717;50.240;8.406;2024-02-15T03:25:38;12.50;99.90
3408;DHT22;1717;50.240;8.406;2024-02-15T03:28:05;12.50;99.90
3408;DHT22;1717;50.240;8.406;2024-02-15T03:30:32;12.60;99.90
3408;DHT22;1717;50.240;8.406;2024-02-15T03:33:00;12.50;99.90
3408;DHT22;1717;50.240;8.406;2024-02-15T03:35:30;12.50;99.90
3408;DHT22;1717;50.240;8.406;2024-02-15T03:37:57;12.50;99.90
3408;DHT22;1717;50.240;8.406;2024-02-15T03:40:24;12.50;99.90
3408;DHT22;1717;50.240;8.406;2024-02-15T03:42:52;12.50;99.90
3408;DHT22;1717;50.240;8.406;2024-02-15T03:45:19;12.50;99.90
3408;DHT22;1717;50.240;8.406;2024-02-15T03:47:49;12.50;99.90
3408;DHT22;1717;50.240;8.406;2024-02-15T03:50:16;12.50;99.90
3408;DHT22;1717;50.240;8.406;2024-02-15T03:52:45;12.50;99.90
3408;DHT22;1717;50.240;8.406;2024-02-15T03:55:12;12.50;99.90
3408;DHT22;1717;50.240;8.406;2024-02-15T03:57:40;12.50;99.90
3408;DHT22;1717;50.240;8.406;2024-02-15T04:00:09;12.50;99.90
3408;DHT22;1717;50.240;8.406;2024-02-15T04:02:39;12.50;99.90
3408;DHT22;1717;50.240;8.406;2024-02-15T04:05:07;12.50;99.90
3408;DHT22;1717;50.240;8.406;2024-02-15T04:07:34;12.50;99.90
3408;DHT22;1717;50.240;8.406;2024-02-15T04:10:04;12.60;99.90
3408;DHT22;1717;50.240;8.406;2024-02-15T04:12:31;12.50;99.90
3408;DHT22;1717;50.240;8.406;2024-02-15T04:14:58;12.60;99.90
3408;DHT22;1717;50.240;8.406;2024-02-15T04:17:30;12.50;99.90
3408;DHT22;1717;50.240;8.406;2024-02-15T04:19:58;12.60;99.90
3408;DHT22;1717;50.240;8.406;2024-02-15T04:22:25;12.50;99.90
3408;DHT22;1717;50.240;8.406;2024-02-15T04:24:52;12.60;99.90
3408;DHT22;1717;50.240;8.406;2024-02-15T04:27:21;12.50;99.90
3408;DHT22;1717;50.240;8.406;2024-02-15T04:29:48;12.60;99.90
3408;DHT22;1717;50.240;8.406;2024-02-15T04:32:15;12.50;99.90
3408;DHT22;1717;50.240;8.406;2024-02-15T04:34:44;12.50;99.90
3408;DHT22;1717;50.240;8.406;2024-02-15T04:37:12;12.50;99.90
3408;DHT22;1717;50.240;8.406;2024-02-15T04:39:39;12.50;99.90
3408;DHT22;1717;50.240;8.406;2024-02-15T04:42:06;12.50;99.90
3408;DHT22;1717;50.240;8.406;2024-02-15T04:44:38;12.50;99.90
3408;DHT22;1717;50.240;8.406;2024-02-15T04:47:05;12.50;99.90
3408;DHT22;1717;50.240;8.406;2024-02-15T04:49:32;12.50;99.90
3408;DHT22;1717;50.240;8.406;2024-02-15T04:51:59;12.50;99.90
3408;DHT22;1717;50.240;8.406;2024-02-15T04:54:27;12.60;99.90
3408;DHT22;1717;50.240;8.406;2024-02-15T04:56:55;12.50;99.90
3408;DHT22;1717;50.240;8.406;2024-02-15T04:59:22;12.50;99.90
3408;DHT22;1717;50.240;8.406;2024-02-15T05:01:53;12.50;99.90
3408;DHT22;1717;50.240;8.406;2024-02-15T05:04:20;12.50;99.90
3408;DHT22;1717;50.240;8.406;2024-02-15T05:06:46;12.60;99.90
3408;DHT22;1717;50.240;8.406;2024-02-15T05:09:13;12.50;99.90
3408;DHT22;1717;50.240;8.406;2024-02-15T05:11:44;12.40;99.90
3408;DHT22;1717;50.240;8.406;2024-02-15T05:14:12;12.50;99.90
3408;DHT22;1717;50.240;8.406;2024-02-15T05:16:44;12.50;99.90
3408;DHT22;1717;50.240;8.406;2024-02-15T05:19:14;12.50;99.90
3408;DHT22;1717;50.240;8.406;2024-02-15T05:21:41;12.50;99.90
3408;DHT22;1717;50.240;8.406;2024-02-15T05:24:10;12.50;99.90
3408;DHT22;1717;50.240;8.406;2024-02-15T05:26:39;12.50;99.90
3408;DHT22;1717;50.240;8.406;2024-02-15T05:29:08;12.50;99.90
3408;DHT22;1717;50.240;8.406;2024-02-15T05:31:35;12.60;99.90
3408;DHT22;1717;50.240;8.406;2024-02-15T05:34:04;12.50;99.90
3408;DHT22;1717;50.240;8.406;2024-02-15T05:36:36;12.50;99.90
3408;DHT22;1717;50.240;8.406;2024-02-15T05:39:04;12.50;99.90
3408;DHT22;1717;50.240;8.406;2024-02-15T05:41:31;12.50;99.90
3408;DHT22;1717;50.240;8.406;2024-02-15T05:43:59;12.50;99.90
3408;DHT22;1717;50.240;8.406;2024-02-15T05:46:26;12.50;99.90
3408;DHT22;1717;50.240;8.406;2024-02-15T05:48:54;12.50;99.90
3408;DHT22;1717;50.240;8.406;2024-02-15T05:51:22;12.50;99.90
3408;DHT22;1717;50.240;8.406;2024-02-15T05:53:50;12.60;99.90
3408;DHT22;1717;50.240;8.406;2024-02-15T05:56:19;12.60;99.90
3408;DHT22;1717;50.240;8.406;2024-02-15T05:58:46;12.50;99.90
3408;DHT22;1717;50.240;8.406;2024-02-15T06:01:13;12.50;99.90
3408;DHT22;1717;50.240;8.406;2024-02-15T06:03:40;12.50;99.90
3408;DHT22;1717;50.240;8.406;2024-02-15T06:06:09;12.50;99.90
3408;DHT22;1717;50.240;8.406;2024-02-15T06:08:37;12.50;99.90
3408;DHT22;1717;50.240;8.406;2024-02-15T06:11:05;12.50;99.90
3408;DHT22;1717;50.240;8.406;2024-02-15T06:13:33;12.50;99.90
3408;DHT22;1717;50.240;8.406;2024-02-15T06:16:00;12.40;99.90
3408;DHT22;1717;50.240;8.406;2024-02-15T06:18:28;12.30;99.90
3408;DHT22;1717;50.240;8.406;2024-02-15T06:20:55;12.30;99.90
3408;DHT22;1717;50.240;8.406;2024-02-15T06:23:24;12.40;99.90
3408;DHT22;1717;50.240;8.406;2024-02-15T06:25:52;12.30;99.90
3408;DHT22;1717;50.240;8.406;2024-02-15T06:28:21;12.30;99.90
3408;DHT22;1717;50.240;8.406;2024-02-15T06:31:01;12.20;99.90
3408;DHT22;1717;50.240;8.406;2024-02-15T06:33:46;12.10;99.90
3408;DHT22;1717;50.240;8.406;2024-02-15T06:36:30;12.10;99.90
3408;DHT22;1717;50.240;8.406;2024-02-15T06:39:14;12.00;99.90
3408;DHT22;1717;50.240;8.406;2024-02-15T06:41:59;12.00;99.90
3408;DHT22;1717;50.240;8.406;2024-02-15T06:44:28;11.90;99.90
3408;DHT22;1717;50.240;8.406;2024-02-15T06:46:54;12.00;99.90
3408;DHT22;1717;50.240;8.406;2024-02-15T06:49:23;11.90;99.90
3408;DHT22;1717;50.240;8.406;2024-02-15T06:51:50;12.00;99.90
3408;DHT22;1717;50.240;8.406;2024-02-15T06:54:17;11.90;99.90
3408;DHT22;1717;50.240;8.406;2024-02-15T06:56:45;11.90;99.90
3408;DHT22;1717;50.240;8.406;2024-02-15T06:59:13;11.90;99.90
3408;DHT22;1717;50.240;8.406;2024-02-15T07:01:42;11.90;99.90
3408;DHT22;1717;50.240;8.406;2024-02-15T07:04:08;11.90;99.90
3408;DHT22;1717;50.240;8.406;2024-02-15T07:06:36;11.90;99.90
3408;DHT22;1717;50.240;8.406;2024-02-15T07:09:03;11.80;99.90
3408;DHT22;1717;50.240;8.406;2024-02-15T07:11:31;11.80;99.90
3408;DHT22;1717;50.240;8.406;2024-02-15T07:13:58;11.80;99.90
3408;DHT22;1717;50.240;8.406;2024-02-15T07:16:25;11.80;99.90
3408;DHT22;1717;50.240;8.406;2024-02-15T07:18:53;11.90;99.90
3408;DHT22;1717;50.240;8.406;2024-02-15T07:21:20;12.00;99.90
3408;DHT22;1717;50.240;8.406;2024-02-15T07:23:51;11.80;99.90
3408;DHT22;1717;50.240;8.406;2024-02-15T07:26:20;11.70;99.90
3408;DHT22;1717;50.240;8.406;2024-02-15T07:28:50;11.70;99.90
3408;DHT22;1717;50.240;8.406;2024-02-15T07:31:18;11.70;99.90
3408;DHT22;1717;50.240;8.406;2024-02-15T07:33:47;11.70;99.90
3408;DHT22;1717;50.240;8.406;2024-02-15T07:36:18;11.70;99.90
3408;DHT22;1717;50.240;8.406;2024-02-15T07:38:45;11.60;99.90
3408;DHT22;1717;50.240;8.406;2024-02-15T07:41:14;11.60;99.90
3408;DHT22;1717;50.240;8.406;2024-02-15T07:43:41;11.60;99.90
3408;DHT22;1717;50.240;8.406;2024-02-15T07:46:11;11.70;99.90
3408;DHT22;1717;50.240;8.406;2024-02-15T07:48:39;11.60;99.90
3408;DHT22;1717;50.240;8.406;2024-02-15T07:51:11;11.50;99.90
3408;DHT22;1717;50.240;8.406;2024-02-15T07:53:39;11.60;99.90
3408;DHT22;1717;50.240;8.406;2024-02-15T07:56:08;11.60;99.90
3408;DHT22;1717;50.240;8.406;2024-02-15T07:58:38;11.60;99.90
3408;DHT22;1717;50.240;8.406;2024-02-15T08:01:06;11.60;99.90
3408;DHT22;1717;50.240;8.406;2024-02-15T08:03:33;11.70;99.90
3408;DHT22;1717;50.240;8.406;2024-02-15T08:06:01;11.70;99.90
3408;DHT22;1717;50.240;8.406;2024-02-15T08:08:32;11.80;99.90
3408;DHT22;1717;50.240;8.406;2024-02-15T08:11:02;11.90;99.90
3408;DHT22;1717;50.240;8.406;2024-02-15T08:13:28;11.90;99.90
3408;DHT22;1717;50.240;8.406;2024-02-15T08:15:56;11.90;99.90
3408;DHT22;1717;50.240;8.406;2024-02-15T08:18:22;11.90;99.90
3408;DHT22;1717;50.240;8.406;2024-02-15T08:20:50;11.90;99.90
3408;DHT22;1717;50.240;8.406;2024-02-15T08:23:17;12.00;99.90
3408;DHT22;1717;50.240;8.406;2024-02-15T08:25:43;11.80;99.90
3408;DHT22;1717;50.240;8.406;2024-02-15T08:28:12;12.10;99.90
3408;DHT22;1717;50.240;8.406;2024-02-15T08:30:38;12.10;99.90
3408;DHT22;1717;50.240;8.406;2024-02-15T08:33:07;12.10;99.90
3408;DHT22;1717;50.240;8.406;2024-02-15T08:35:36;12.30;99.90
3408;DHT22;1717;50.240;8.406;2024-02-15T08:38:03;12.20;99.90
3408;DHT22;1717;50.240;8.406;2024-02-15T08:40:31;12.20;99.90
3408;DHT22;1717;50.240;8.406;2024-02-15T08:42:58;12.10;99.90
3408;DHT22;1717;50.240;8.406;2024-02-15T08:45:26;12.20;99.90
3408;DHT22;1717;50.240;8.406;2024-02-15T08:47:53;12.20;99.90
3408;DHT22;1717;50.240;8.406;2024-02-15T08:50:20;12.20;99.90
3408;DHT22;1717;50.240;8.406;2024-02-15T08:52:49;12.30;99.90
3408;DHT22;1717;50.240;8.406;2024-02-15T08:55:16;12.30;99.90
3408;DHT22;1717;50.240;8.406;2024-02-15T08:57:43;12.40;99.90
3408;DHT22;1717;50.240;8.406;2024-02-15T09:00:12;12.40;99.90
3408;DHT22;1717;50.240;8.406;2024-02-15T09:02:42;12.30;99.90
3408;DHT22;1717;50.240;8.406;2024-02-15T09:05:09;12.40;99.90
3408;DHT22;1717;50.240;8.406;2024-02-15T09:07:39;12.50;99.90
3408;DHT22;1717;50.240;8.406;2024-02-15T09:10:08;12.50;99.90
3408;DHT22;1717;50.240;8.406;2024-02-15T09:12:35;12.60;99.90
3408;DHT22;1717;50.240;8.406;2024-02-15T09:15:06;12.60;99.90
3408;DHT22;1717;50.240;8.406;2024-02-15T09:17:33;12.70;99.90
3408;DHT22;1717;50.240;8.406;2024-02-15T09:20:07;12.80;99.90
3408;DHT22;1717;50.240;8.406;2024-02-15T09:22:34;12.90;99.90
3408;DHT22;1717;50.240;8.406;2024-02-15T09:25:02;12.90;99.90
3408;DHT22;1717;50.240;8.406;2024-02-15T09:27:28;12.90;99.90
3408;DHT22;1717;50.240;8.406;2024-02-15T09:29:55;13.00;99.90
3408;DHT22;1717;50.240;8.406;2024-02-15T09:32:22;13.10;99.90
3408;DHT22;1717;50.240;8.406;2024-02-15T09:34:49;13.10;99.90
3408;DHT22;1717;50.240;8.406;2024-02-15T09:37:17;13.10;99.90
3408;DHT22;1717;50.240;8.406;2024-02-15T09:39:44;13.20;99.90
3408;DHT22;1717;50.240;8.406;2024-02-15T09:42:11;13.20;99.90
3408;DHT22;1717;50.240;8.406;2024-02-15T09:44:38;13.20;99.90
3408;DHT22;1717;50.240;8.406;2024-02-15T09:47:12;13.30;99.90
3408;DHT22;1717;50.240;8.406;2024-02-15T09:49:40;13.30;99.90
3408;DHT22;1717;50.240;8.406;2024-02-15T09:52:08;13.40;99.90
3408;DHT22;1717;50.240;8.406;2024-02-15T09:54:40;13.30;99.90
3408;DHT22;1717;50.240;8.406;2024-02-15T09:57:09;13.50;99.90
3408;DHT22;1717;50.240;8.406;2024-02-15T09:59:36;13.40;99.90
3408;DHT22;1717;50.240;8.406;2024-02-15T10:02:03;13.50;99.90
3408;DHT22;1717;50.240;8.406;2024-02-15T10:04:35;13.50;99.90
3408;DHT22;1717;50.240;8.406;2024-02-15T10:07:01;13.50;99.90
3408;DHT22;1717;50.240;8.406;2024-02-15T10:09:29;13.50;99.90
3408;DHT22;1717;50.240;8.406;2024-02-15T10:11:59;13.60;99.90
3408;DHT22;1717;50.240;8.406;2024-02-15T10:14:28;13.60;99.90
3408;DHT22;1717;50.240;8.406;2024-02-15T10:16:55;13.60;99.90
3408;DHT22;1717;50.240;8.406;2024-02-15T10:19:22;13.70;99.90
3408;DHT22;1717;50.240;8.406;2024-02-15T10:21:51;13.70;99.90
3408;DHT22;1717;50.240;8.406;2024-02-15T10:24:21;13.80;99.90
3408;DHT22;1717;50.240;8.406;2024-02-15T10:26:50;13.90;99.90
3408;DHT22;1717;50.240;8.406;2024-02-15T10:29:19;14.00;99.90
3408;DHT22;1717;50.240;8.406;2024-02-15T10:31:53;14.00;99.90
3408;DHT22;1717;50.240;8.406;2024-02-15T10:34:21;14.00;99.90
3408;DHT22;1717;50.240;8.406;2024-02-15T10:36:48;14.10;99.90
3408;DHT22;1717;50.240;8.406;2024-02-15T10:39:17;14.10;99.90
3408;DHT22;1717;50.240;8.406;2024-02-15T10:41:45;14.20;99.90
3408;DHT22;1717;50.240;8.406;2024-02-15T10:44:15;14.20;99.90
3408;DHT22;1717;50.240;8.406;2024-02-15T10:46:45;14.30;99.90
3408;DHT22;1717;50.240;8.406;2024-02-15T10:49:12;14.30;99.90
3408;DHT22;1717;50.240;8.406;2024-02-15T10:51:43;14.40;99.90
3408;DHT22;1717;50.240;8.406;2024-02-15T10:54:12;14.30;99.90
3408;DHT22;1717;50.240;8.406;2024-02-15T10:56:44;14.40;99.90
3408;DHT22;1717;50.240;8.406;2024-02-15T10:59:17;14.40;99.90
3408;DHT22;1717;50.240;8.406;2024-02-15T11:01:47;14.40;99.90
3408;DHT22;1717;50.240;8.406;2024-02-15T11:04:20;14.50;99.90
3408;DHT22;1717;50.240;8.406;2024-02-15T11:06:50;14.50;99.90
3408;DHT22;1717;50.240;8.406;2024-02-15T11:09:17;14.50;99.90
3408;DHT22;1717;50.240;8.406;2024-02-15T11:11:45;14.50;99.90
3408;DHT22;1717;50.240;8.406;2024-02-15T11:14:29;14.60;99.90
3408;DHT22;1717;50.240;8.406;2024-02-15T11:16:59;14.60;99.90
3408;DHT22;1717;50.240;8.406;2024-02-15T11:19:45;14.60;99.90
3408;DHT22;1717;50.240;8.406;2024-02-15T11:22:13;14.70;99.90
3408;DHT22;1717;50.240;8.406;2024-02-15T11:24:48;14.60;99.90
3408;DHT22;1717;50.240;8.406;2024-02-15T11:27:24;14.60;99.90
3408;DHT22;1717;50.240;8.406;2024-02-15T11:29:53;14.60;99.90
3408;DHT22;1717;50.240;8.406;2024-02-15T11:32:41;14.60;99.90
3408;DHT22;1717;50.240;8.406;2024-02-15T11:35:11;14.60;99.90
3408;DHT22;1717;50.240;8.406;2024-02-15T11:38:06;14.60;99.90
3408;DHT22;1717;50.240;8.406;2024-02-15T11:41:16;14.70;99.90
3408;DHT22;1717;50.240;8.406;2024-02-15T11:43:51;14.80;99.90
3408;DHT22;1717;50.240;8.406;2024-02-15T11:46:24;14.70;99.90
3408;DHT22;1717;50.240;8.406;2024-02-15T11:48:56;14.70;99.90
3408;DHT22;1717;50.240;8.406;2024-02-15T11:51:29;14.80;99.90
3408;DHT22;1717;50.240;8.406;2024-02-15T11:54:04;14.80;99.90
3408;DHT22;1717;50.240;8.406;2024-02-15T11:56:56;14.80;99.90
3408;DHT22;1717;50.240;8.406;2024-02-15T11:59:40;14.90;99.90
3408;DHT22;1717;50.240;8.406;2024-02-15T12:02:19;14.90;99.90
3408;DHT22;1717;50.240;8.406;2024-02-15T12:05:05;15.00;99.90
3408;DHT22;1717;50.240;8.406;2024-02-15T12:07:49;14.90;99.90
3408;DHT22;1717;50.240;8.406;2024-02-15T12:10:33;15.00;99.90
3408;DHT22;1717;50.240;8.406;2024-02-15T12:13:18;15.00;99.90
3408;DHT22;1717;50.240;8.406;2024-02-15T12:16:02;15.00;99.90
3408;DHT22;1717;50.240;8.406;2024-02-15T12:18:48;15.10;99.90
3408;DHT22;1717;50.240;8.406;2024-02-15T12:21:21;15.10;99.90
3408;DHT22;1717;50.240;8.406;2024-02-15T12:23:49;15.10;99.90
3408;DHT22;1717;50.240;8.406;2024-02-15T12:26:18;15.20;99.90
3408;DHT22;1717;50.240;8.406;2024-02-15T12:28:50;15.20;99.90
3408;DHT22;1717;50.240;8.406;2024-02-15T12:31:17;15.20;99.90
3408;DHT22;1717;50.240;8.406;2024-02-15T12:33:44;15.30;99.90
3408;DHT22;1717;50.240;8.406;2024-02-15T12:36:12;15.30;99.90
3408;DHT22;1717;50.240;8.406;2024-02-15T12:38:40;15.30;99.90
3408;DHT22;1717;50.240;8.406;2024-02-15T12:41:20;15.40;99.90
3408;DHT22;1717;50.240;8.406;2024-02-15T12:43:52;15.40;99.90
3408;DHT22;1717;50.240;8.406;2024-02-15T12:46:19;15.40;99.90
3408;DHT22;1717;50.240;8.406;2024-02-15T12:48:46;15.40;99.90
3408;DHT22;1717;50.240;8.406;2024-02-15T12:51:13;15.40;99.90
3408;DHT22;1717;50.240;8.406;2024-02-15T12:53:42;15.40;99.90
3408;DHT22;1717;50.240;8.406;2024-02-15T12:56:09;15.40;99.90
3408;DHT22;1717;50.240;8.406;2024-02-15T12:58:36;15.50;99.90
3408;DHT22;1717;50.240;8.406;2024-02-15T13:01:04;15.50;99.90
3408;DHT22;1717;50.240;8.406;2024-02-15T13:03:31;15.50;99.90
3408;DHT22;1717;50.240;8.406;2024-02-15T13:05:58;15.60;99.90
3408;DHT22;1717;50.240;8.406;2024-02-15T13:08:25;15.60;99.90
3408;DHT22;1717;50.240;8.406;2024-02-15T13:10:53;15.70;99.90
3408;DHT22;1717;50.240;8.406;2024-02-15T13:13:21;15.60;99.90
3408;DHT22;1717;50.240;8.406;2024-02-15T13:15:48;15.70;99.90
3408;DHT22;1717;50.240;8.406;2024-02-15T13:18:17;15.60;99.90
3408;DHT22;1717;50.240;8.406;2024-02-15T13:20:44;15.60;99.90
3408;DHT22;1717;50.240;8.406;2024-02-15T13:23:11;15.60;99.90
3408;DHT22;1717;50.240;8.406;2024-02-15T13:25:45;15.70;99.90
3408;DHT22;1717;50.240;8.406;2024-02-15T13:28:13;15.60;99.90
3408;DHT22;1717;50.240;8.406;2024-02-15T13:30:40;15.60;99.90
3408;DHT22;1717;50.240;8.406;2024-02-15T13:33:09;15.60;99.90
3408;DHT22;1717;50.240;8.406;2024-02-15T13:35:36;15.50;99.90
3408;DHT22;1717;50.240;8.406;2024-02-15T13:38:03;15.50;99.90
3408;DHT22;1717;50.240;8.406;2024-02-15T13:40:30;15.50;99.90
3408;DHT22;1717;50.240;8.406;2024-02-15T13:42:58;15.40;99.90
3408;DHT22;1717;50.240;8.406;2024-02-15T13:45:28;15.50;99.90
3408;DHT22;1717;50.240;8.406;2024-02-15T13:47:59;15.40;99.90
3408;DHT22;1717;50.240;8.406;2024-02-15T13:50:28;15.40;99.90
3408;DHT22;1717;50.240;8.406;2024-02-15T13:52:55;15.40;99.90
3408;DHT22;1717;50.240;8.406;2024-02-15T13:55:23;15.40;99.90
3408;DHT22;1717;50.240;8.406;2024-02-15T13:57:51;15.40;99.90
3408;DHT22;1717;50.240;8.406;2024-02-15T14:00:19;15.40;99.90
3408;DHT22;1717;50.240;8.406;2024-02-15T14:02:58;15.40;99.90
3408;DHT22;1717;50.240;8.406;2024-02-15T14:05:26;15.40;99.90
3408;DHT22;1717;50.240;8.406;2024-02-15T14:07:56;15.40;99.90
3408;DHT22;1717;50.240;8.406;2024-02-15T14:10:23;15.30;99.90
3408;DHT22;1717;50.240;8.406;2024-02-15T14:12:51;15.30;99.90
3408;DHT22;1717;50.240;8.406;2024-02-15T14:15:18;15.30;99.90
3408;DHT22;1717;50.240;8.406;2024-02-15T14:17:46;15.30;99.90
3408;DHT22;1717;50.240;8.406;2024-02-15T14:20:14;15.30;99.90
3408;DHT22;1717;50.240;8.406;2024-02-15T14:22:41;15.20;99.90
3408;DHT22;1717;50.240;8.406;2024-02-15T14:25:09;15.10;99.90
3408;DHT22;1717;50.240;8.406;2024-02-15T14:27:38;15.10;99.90
3408;DHT22;1717;50.240;8.406;2024-02-15T14:30:06;15.20;99.90
3408;DHT22;1717;50.240;8.406;2024-02-15T14:32:51;15.20;99.90
3408;DHT22;1717;50.240;8.406;2024-02-15T14:35:31;15.10;99.90
3408;DHT22;1717;50.240;8.406;2024-02-15T14:38:00;15.10;99.90
3408;DHT22;1717;50.240;8.406;2024-02-15T14:40:28;15.00;99.90
3408;DHT22;1717;50.240;8.406;2024-02-15T14:42:55;15.00;99.90
3408;DHT22;1717;50.240;8.406;2024-02-15T14:45:23;15.00;99.90
3408;DHT22;1717;50.240;8.406;2024-02-15T14:47:50;14.90;99.90
3408;DHT22;1717;50.240;8.406;2024-02-15T14:50:17;14.90;99.90
3408;DHT22;1717;50.240;8.406;2024-02-15T14:52:47;14.90;99.90
3408;DHT22;1717;50.240;8.406;2024-02-15T14:55:14;14.70;99.90
3408;DHT22;1717;50.240;8.406;2024-02-15T14:57:43;14.80;99.90
3408;DHT22;1717;50.240;8.406;2024-02-15T15:00:10;14.70;99.90
3408;DHT22;1717;50.240;8.406;2024-02-15T15:02:40;14.70;99.90
3408;DHT22;1717;50.240;8.406;2024-02-15T15:05:09;14.70;99.90
3408;DHT22;1717;50.240;8.406;2024-02-15T15:07:54;14.60;99.90
3408;DHT22;1717;50.240;8.406;2024-02-15T15:10:39;14.70;99.90
3408;DHT22;1717;50.240;8.406;2024-02-15T15:13:23;14.80;99.90
3408;DHT22;1717;50.240;8.406;2024-02-15T15:15:51;14.80;99.90
3408;DHT22;1717;50.240;8.406;2024-02-15T15:18:19;14.90;99.90
3408;DHT22;1717;50.240;8.406;2024-02-15T15:20:46;14.80;99.90
3408;DHT22;1717;50.240;8.406;2024-02-15T15:23:15;14.80;99.90
3408;DHT22;1717;50.240;8.406;2024-02-15T15:25:42;14.60;99.90
3408;DHT22;1717;50.240;8.406;2024-02-15T15:28:09;14.70;99.90
3408;DHT22;1717;50.240;8.406;2024-02-15T15:30:37;14.70;99.90
3408;DHT22;1717;50.240;8.406;2024-02-15T15:33:04;14.60;99.90
3408;DHT22;1717;50.240;8.406;2024-02-15T15:35:32;14.50;99.90
3408;DHT22;1717;50.240;8.406;2024-02-15T15:38:00;14.50;99.90
3408;DHT22;1717;50.240;8.406;2024-02-15T15:40:28;14.50;99.90
3408;DHT22;1717;50.240;8.406;2024-02-15T15:42:55;14.50;99.90
3408;DHT22;1717;50.240;8.406;2024-02-15T15:45:22;14.50;99.90
3408;DHT22;1717;50.240;8.406;2024-02-15T15:47:50;14.60;99.90
3408;DHT22;1717;50.240;8.406;2024-02-15T15:50:17;14.40;99.90
3408;DHT22;1717;50.240;8.406;2024-02-15T15:52:45;14.40;99.90
3408;DHT22;1717;50.240;8.406;2024-02-15T15:55:12;14.50;99.90
3408;DHT22;1717;50.240;8.406;2024-02-15T15:57:40;14.60;99.90
3408;DHT22;1717;50.240;8.406;2024-02-15T16:00:09;14.60;99.90
3408;DHT22;1717;50.240;8.406;2024-02-15T16:02:40;14.60;99.90
3408;DHT22;1717;50.240;8.406;2024-02-15T16:05:09;14.60;99.90
3408;DHT22;1717;50.240;8.406;2024-02-15T16:07:37;14.60;99.90
3408;DHT22;1717;50.240;8.406;2024-02-15T16:10:07;14.70;99.90
3408;DHT22;1717;50.240;8.406;2024-02-15T16:12:36;14.70;99.90
3408;DHT22;1717;50.240;8.406;2024-02-15T16:15:06;14.70;99.90